Time;durP1;ratioP1;P1;durP2;ratioP2;P2;SDS_P1;SDS_P2;PMS_P1;PMS_P2;Temp;Humidity;BMP_temperature;BMP_pressure;BME280_temperature;BME280_humidity;BME280_pressure;Samples;Min_cycle;Max_cycle;Signal;HPM_P1;HPM_P2
2022/12/31 00:00:39;;;;;;;61.33;20.90;;;;;;;1.04;100.00;101259.53;5051953;28;20314;-27
2022/12/31 00:03:06;;;;;;;43.70;20.45;;;;;;;1.10;100.00;101250.31;5069770;28;20063;-25
2022/12/31 00:05:32;;;;;;;62.90;23.42;;;;;;;0.98;100.00;101265.28;5051481;28;20488;-26
2022/12/31 00:07:58;;;;;;;60.17;21.75;;;;;;;1.31;99.23;101261.66;5051532;28;20073;-28
2022/12/31 00:10:23;;;;;;;51.17;21.63;;;;;;;1.34;97.25;101263.19;5069046;28;20461;-26
2022/12/31 00:12:49;;;;;;;48.08;19.73;;;;;;;1.04;99.00;101242.94;5051581;28;20764;-25
2022/12/31 00:15:14;;;;;;;52.28;21.05;;;;;;;1.02;99.13;101244.88;5051480;28;20029;-28
2022/12/31 00:17:40;;;;;;;54.75;20.63;;;;;;;1.09;99.43;101252.13;5069782;28;20036;-25
2022/12/31 00:20:06;;;;;;;60.88;21.90;;;;;;;1.15;98.11;101267.38;5051031;28;20055;-26
2022/12/31 00:22:32;;;;;;;59.40;22.85;;;;;;;1.01;99.53;101265.06;5069485;28;20091;-26
2022/12/31 00:24:57;;;;;;;50.38;21.83;;;;;;;0.90;100.00;101262.47;5051111;28;20730;-26
2022/12/31 00:27:23;;;;;;;54.10;21.10;;;;;;;0.84;100.00;101262.97;5069079;28;20028;-28
2022/12/31 00:29:48;;;;;;;50.75;20.38;;;;;;;0.78;100.00;101270.41;5069264;28;20016;-26
2022/12/31 00:32:13;;;;;;;59.05;22.10;;;;;;;0.70;100.00;101251.81;5069019;28;20029;-29
2022/12/31 00:34:39;;;;;;;58.78;23.25;;;;;;;1.08;100.00;101268.81;5069156;28;20024;-26
2022/12/31 00:37:04;;;;;;;60.63;22.00;;;;;;;1.28;100.00;101253.19;5069127;28;20823;-28
2022/12/31 00:39:30;;;;;;;56.92;23.10;;;;;;;1.46;99.72;101264.78;5069003;28;20021;-27
2022/12/31 00:41:55;;;;;;;54.50;22.60;;;;;;;1.29;100.00;101286.38;5069328;28;20028;-26
2022/12/31 00:44:21;;;;;;;56.05;20.10;;;;;;;1.14;100.00;101291.97;5068950;28;20024;-26
2022/12/31 00:46:47;;;;;;;50.28;20.35;;;;;;;0.87;100.00;101241.72;5069174;28;20476;-26
2022/12/31 00:49:12;;;;;;;56.45;19.55;;;;;;;1.10;100.00;101263.44;5051028;28;20075;-26
2022/12/31 00:51:38;;;;;;;45.60;20.55;;;;;;;1.27;100.00;101280.44;5069144;28;20786;-26
2022/12/31 00:54:04;;;;;;;46.30;19.23;;;;;;;0.95;100.00;101289.19;5068718;28;20034;-26
2022/12/31 00:56:30;;;;;;;40.67;21.00;;;;;;;0.80;100.00;101284.25;5069146;28;20494;-25
2022/12/31 00:58:56;;;;;;;46.00;20.02;;;;;;;0.74;100.00;101290.00;5068866;28;20835;-29
2022/12/31 01:01:31;;;;;;;48.38;21.10;;;;;;;0.76;100.00;101287.25;5067608;28;20060;-26
2022/12/31 01:04:18;;;;;;;41.85;19.50;;;;;;;0.91;100.00;101287.78;5068882;28;20059;-28
2022/12/31 01:06:44;;;;;;;45.55;20.80;;;;;;;1.21;100.00;101292.31;5069205;28;20039;-27
2022/12/31 01:09:11;;;;;;;46.25;21.08;;;;;;;1.20;100.00;101288.81;5069008;28;20029;-26
2022/12/31 01:11:37;;;;;;;49.75;20.05;;;;;;;1.41;100.00;101288.03;5050809;28;20039;-27
2022/12/31 01:14:09;;;;;;;62.25;20.83;;;;;;;1.41;99.45;101261.72;5068653;28;20020;-28
2022/12/31 01:16:38;;;;;;;50.17;21.13;;;;;;;1.39;99.83;101279.44;5068782;28;20039;-27
2022/12/31 01:19:10;;;;;;;45.45;20.60;;;;;;;1.47;100.00;101290.13;5071921;28;20036;-27
2022/12/31 01:21:38;;;;;;;45.60;19.60;;;;;;;1.59;97.87;101286.47;5072756;28;20060;-26
2022/12/31 01:24:04;;;;;;;41.05;18.83;;;;;;;1.26;98.21;101257.75;5072539;28;20078;-26
2022/12/31 01:26:29;;;;;;;38.10;18.33;;;;;;;1.60;97.32;101274.97;5072672;28;20047;-28
2022/12/31 01:28:55;;;;;;;47.28;20.70;;;;;;;1.76;96.41;101290.28;5072522;28;20029;-26
2022/12/31 01:31:22;;;;;;;46.83;20.02;;;;;;;1.63;95.58;101273.03;5072311;28;20028;-27
2022/12/31 01:33:48;;;;;;;53.95;21.30;;;;;;;1.54;96.76;101286.00;5072329;28;20127;-26
2022/12/31 01:36:18;;;;;;;44.78;20.25;;;;;;;1.81;96.13;101295.13;5072569;28;20128;-26
2022/12/31 01:38:44;;;;;;;43.38;19.95;;;;;;;1.71;96.14;101289.00;5054570;28;20024;-27
2022/12/31 01:41:18;;;;;;;54.13;21.35;;;;;;;1.72;96.17;101265.19;5054271;28;20028;-29
2022/12/31 01:44:12;;;;;;;44.00;20.85;;;;;;;1.48;96.12;101268.13;5054392;28;20029;-25
2022/12/31 01:46:45;;;;;;;45.38;20.00;;;;;;;1.23;98.27;101273.75;5072376;28;20033;-30
2022/12/31 01:49:31;;;;;;;46.47;20.30;;;;;;;1.58;97.55;101284.78;5072252;28;20111;-26
2022/12/31 01:52:12;;;;;;;43.40;19.38;;;;;;;1.19;99.17;101274.03;5072210;28;20610;-31
2022/12/31 01:54:42;;;;;;;40.80;18.80;;;;;;;1.10;99.66;101277.41;5071833;28;20036;-25
2022/12/31 01:57:09;;;;;;;42.13;19.88;;;;;;;0.97;99.39;101259.22;5072005;28;20032;-29
2022/12/31 01:59:35;;;;;;;40.80;18.55;;;;;;;1.05;98.90;101266.47;5071894;28;20039;-26
2022/12/31 02:02:01;;;;;;;42.67;19.85;;;;;;;0.80;100.00;101280.78;5053949;28;20036;-27
2022/12/31 02:04:28;;;;;;;44.83;19.95;;;;;;;0.75;100.00;101259.31;5071617;28;20025;-27
2022/12/31 02:07:00;;;;;;;43.10;19.80;;;;;;;0.85;100.00;101280.41;5071703;28;20040;-27
2022/12/31 02:09:25;;;;;;;51.38;20.88;;;;;;;1.10;99.78;101268.69;5053756;28;20066;-29
2022/12/31 02:11:51;;;;;;;48.22;20.38;;;;;;;1.15;100.00;101280.50;5071626;28;20103;-27
2022/12/31 02:14:23;;;;;;;44.88;19.40;;;;;;;1.23;99.51;101286.91;5053417;28;20549;-27
2022/12/31 02:16:51;;;;;;;41.22;19.17;;;;;;;1.28;99.40;101295.25;5053375;28;20036;-26
2022/12/31 02:19:50;;;;;;;52.92;21.25;;;;;;;1.31;99.24;101298.47;5071897;28;20078;-26
2022/12/31 02:22:37;;;;;;;47.10;21.42;;;;;;;1.04;99.87;101301.56;5071010;28;20533;-26
2022/12/31 02:25:30;;;;;;;57.17;20.27;;;;;;;1.06;100.00;101283.88;5071207;28;20377;-28
2022/12/31 02:28:04;;;;;;;47.60;20.42;;;;;;;1.00;100.00;101302.78;5071115;28;20081;-25
2022/12/31 02:30:31;;;;;;;51.03;22.88;;;;;;;0.95;100.00;101276.06;5070428;28;20155;-26
2022/12/31 02:33:03;;;;;;;48.57;22.30;;;;;;;0.84;100.00;101255.94;5053244;28;20081;-25
2022/12/31 02:35:54;;;;;;;54.33;21.40;;;;;;;1.14;100.00;101291.13;5071351;28;20109;-26
2022/12/31 02:38:32;;;;;;;54.63;22.13;;;;;;;1.17;100.00;101285.63;5052799;28;20531;-27
2022/12/31 02:40:59;;;;;;;46.58;21.83;;;;;;;1.25;99.95;101272.69;5053186;28;20021;-26
2022/12/31 02:43:25;;;;;;;59.38;24.08;;;;;;;1.25;98.45;101287.59;5053042;28;20101;-26
2022/12/31 02:46:22;;;;;;;61.10;23.20;;;;;;;1.26;99.46;101295.38;5071110;28;20068;-26
2022/12/31 02:48:50;;;;;;;52.70;20.90;;;;;;;1.38;98.23;101283.81;5062255;28;20044;-25
2022/12/31 02:51:40;;;;;;;50.55;21.88;;;;;;;1.31;99.04;101276.59;5071199;28;20028;-29
2022/12/31 02:54:35;;;;;;;61.70;23.02;;;;;;;1.12;98.28;101261.53;5069476;28;20032;-27
2022/12/31 02:57:04;;;;;;;48.25;23.50;;;;;;;1.06;99.36;101291.75;5069733;28;20051;-27
2022/12/31 03:02:32;;;;;;;53.20;20.75;;;;;;;0.67;100.00;101265.19;5070728;28;19982;-28
2022/12/31 03:05:01;;;;;;;63.28;23.67;;;;;;;0.66;100.00;101281.91;5070489;28;20107;-27
2022/12/31 03:07:30;;;;;;;57.75;22.58;;;;;;;0.95;100.00;101276.06;5070500;28;20138;-29
2022/12/31 03:09:56;;;;;;;57.03;24.70;;;;;;;0.94;100.00;101300.66;5070886;28;20037;-25
2022/12/31 03:15:18;;;;;;;57.88;25.73;;;;;;;1.16;99.12;101295.28;5070656;28;20063;-26
2022/12/31 03:17:51;;;;;;;61.42;23.27;;;;;;;1.34;99.08;101310.50;5070215;28;20488;-25
2022/12/31 03:23:06;;;;;;;57.78;22.90;;;;;;;0.98;100.00;101323.06;5048387;28;20080;-27
2022/12/31 03:25:40;;;;;;;;;;;;;;;1.01;100.00;101328.09;5070541;28;20031;-26
2022/12/31 03:28:11;;;;;;;65.95;30.80;;;;;;;0.75;100.00;101294.28;5068556;28;19969;-25
2022/12/31 03:30:39;;;;;;;47.00;22.02;;;;;;;0.79;100.00;101303.56;5070000;28;20472;-27
2022/12/31 03:33:05;;;;;;;50.35;24.23;;;;;;;0.59;100.00;101302.59;5070473;28;20054;-25
2022/12/31 03:35:33;;;;;;;59.22;27.35;;;;;;;0.50;100.00;101294.59;5069873;28;20025;-27
2022/12/31 03:37:59;;;;;;;52.47;23.35;;;;;;;0.57;100.00;101314.13;5070456;28;20055;-29
2022/12/31 03:40:27;;;;;;;46.10;21.08;;;;;;;0.78;100.00;101286.16;5069645;28;20033;-26
2022/12/31 03:42:53;;;;;;;54.08;21.65;;;;;;;1.09;100.00;101319.59;5069664;28;20082;-28
2022/12/31 03:45:18;;;;;;;51.50;22.77;;;;;;;1.01;100.00;101322.84;5052056;28;20044;-30
2022/12/31 03:47:44;;;;;;;66.32;33.00;;;;;;;1.04;100.00;101316.50;5051757;28;20401;-28
2022/12/31 03:50:12;;;;;;;52.70;22.00;;;;;;;0.91;100.00;101300.91;5069687;28;20083;-27
2022/12/31 03:52:37;;;;;;;49.42;21.20;;;;;;;0.69;100.00;101307.06;5069735;28;20021;-27
2022/12/31 03:55:04;;;;;;;38.15;21.42;;;;;;;0.89;99.51;101319.41;5069632;28;20051;-29
2022/12/31 03:57:30;;;;;;;43.65;20.77;;;;;;;0.94;99.35;101316.41;5051634;28;20051;-26
2022/12/31 03:59:56;;;;;;;44.67;23.05;;;;;;;1.15;99.25;101335.69;5070084;28;20063;-27
2022/12/31 04:02:21;;;;;;;50.90;24.08;;;;;;;1.32;98.31;101336.09;5069295;28;20024;-28
2022/12/31 04:04:47;;;;;;;40.45;19.30;;;;;;;1.29;98.46;101326.66;5068104;28;20029;-27
2022/12/31 04:07:12;;;;;;;48.10;22.95;;;;;;;1.14;99.46;101333.19;5069332;28;20027;-29
2022/12/31 04:09:38;;;;;;;44.67;21.75;;;;;;;1.02;99.80;101319.25;5069418;28;20063;-28
2022/12/31 04:12:03;;;;;;;41.13;19.42;;;;;;;0.91;100.00;101327.19;5068874;28;20116;-32
2022/12/31 04:14:29;;;;;;;47.80;17.73;;;;;;;0.67;100.00;101335.25;5069442;28;20205;-29
2022/12/31 04:16:54;;;;;;;42.95;19.13;;;;;;;0.44;100.00;101319.53;5069250;28;20022;-27
2022/12/31 04:19:20;;;;;;;48.33;19.80;;;;;;;0.74;100.00;101320.69;5069165;28;20031;-26
2022/12/31 04:21:45;;;;;;;58.03;21.95;;;;;;;0.51;100.00;101315.50;5069495;28;20056;-26
2022/12/31 04:24:10;;;;;;;58.10;20.70;;;;;;;0.70;100.00;101337.63;5068747;28;20404;-28
2022/12/31 04:26:36;;;;;;;51.85;17.77;;;;;;;0.78;100.00;101325.56;5068896;28;20024;-27
2022/12/31 04:29:02;;;;;;;60.25;21.98;;;;;;;0.87;100.00;101331.03;5069083;28;20017;-28
2022/12/31 04:31:27;;;;;;;72.13;21.65;;;;;;;0.74;100.00;101321.50;5051170;28;20439;-26
2022/12/31 04:33:52;;;;;;;57.78;21.65;;;;;;;0.67;100.00;101338.69;5051093;28;20024;-25
2022/12/31 04:36:18;;;;;;;56.58;20.35;;;;;;;0.59;100.00;101338.47;5069065;28;20044;-27
2022/12/31 04:38:43;;;;;;;59.35;22.10;;;;;;;0.74;100.00;101311.00;5068956;28;20077;-26
2022/12/31 04:41:18;;;;;;;65.75;21.90;;;;;;;0.83;100.00;101334.84;5050531;28;20029;-26
2022/12/31 04:43:46;;;;;;;54.58;22.05;;;;;;;1.03;100.00;101347.19;5069304;28;20477;-26
2022/12/31 04:46:13;;;;;;;68.63;23.85;;;;;;;1.05;100.00;101333.94;5068741;28;20028;-27
2022/12/31 04:48:38;;;;;;;61.75;24.92;;;;;;;1.20;100.00;101322.16;5068772;28;20029;-26
2022/12/31 04:51:04;;;;;;;49.58;24.08;;;;;;;1.52;100.00;101337.88;5068678;28;20032;-26
2022/12/31 04:53:30;;;;;;;65.75;24.90;;;;;;;1.60;99.92;101345.97;5068049;28;20506;-25
2022/12/31 04:55:55;;;;;;;53.20;25.60;;;;;;;1.60;100.00;101343.31;5050946;28;20058;-26
2022/12/31 04:58:21;;;;;;;47.47;22.27;;;;;;;1.44;99.01;101342.13;5068478;28;20039;-28
2022/12/31 05:00:48;;;;;;;55.88;23.17;;;;;;;1.40;99.99;101345.00;5067511;28;20032;-26
2022/12/31 05:03:14;;;;;;;48.95;23.50;;;;;;;1.40;100.00;101350.25;5050615;28;20029;-27
2022/12/31 05:05:41;;;;;;;76.30;32.20;;;;;;;1.37;100.00;101349.69;5068741;28;20029;-25
2022/12/31 05:08:11;;;;;;;101.28;48.90;;;;;;;0.98;100.00;101313.44;5068251;28;20047;-27
2022/12/31 05:10:40;;;;;;;49.47;22.88;;;;;;;0.96;100.00;101357.38;5050827;28;20028;-27
2022/12/31 05:13:05;;;;;;;78.70;33.63;;;;;;;0.97;100.00;101343.28;5068526;28;20056;-27
2022/12/31 05:15:31;;;;;;;74.65;33.33;;;;;;;1.35;100.00;101341.94;5068800;28;20540;-27
2022/12/31 05:17:56;;;;;;;64.53;28.48;;;;;;;1.43;99.70;101364.94;5068591;28;20033;-26
2022/12/31 05:20:21;;;;;;;56.65;26.92;;;;;;;1.44;99.13;101361.34;5068364;28;20024;-27
2022/12/31 05:22:47;;;;;;;87.50;36.92;;;;;;;1.55;99.11;101350.78;5050175;28;20056;-27
2022/12/31 05:25:12;;;;;;;168.95;62.28;;;;;;;1.71;98.73;101370.53;5068589;28;20020;-26
2022/12/31 05:27:38;;;;;;;109.18;43.55;;;;;;;1.69;98.58;101375.91;5068665;28;20029;-28
2022/12/31 05:30:05;;;;;;;56.05;25.38;;;;;;;1.60;98.10;101377.50;5068232;28;20025;-27
2022/12/31 05:32:32;;;;;;;90.18;35.97;;;;;;;1.54;99.30;101392.97;5068502;28;20397;-27
2022/12/31 05:34:58;;;;;;;296.25;101.45;;;;;;;1.67;98.77;101387.53;5068458;28;20032;-25
2022/12/31 05:37:25;;;;;;;110.55;49.20;;;;;;;1.42;98.67;101373.78;5068354;28;20028;-28
2022/12/31 05:39:50;;;;;;;72.32;36.40;;;;;;;1.56;98.65;101385.78;5050270;28;20480;-28
2022/12/31 05:42:16;;;;;;;48.00;25.17;;;;;;;1.66;98.13;101396.38;5068246;28;20028;-25
2022/12/31 05:44:41;;;;;;;48.85;25.95;;;;;;;2.00;96.47;101391.72;5067157;28;20044;-26
2022/12/31 05:47:07;;;;;;;49.00;25.65;;;;;;;2.03;95.95;101394.09;5068209;28;20036;-29
2022/12/31 05:49:32;;;;;;;52.25;27.52;;;;;;;1.91;96.65;101389.88;5050408;28;20029;-27
2022/12/31 05:51:57;;;;;;;48.33;26.15;;;;;;;1.98;95.45;101391.88;5068042;28;20435;-28
2022/12/31 05:54:23;;;;;;;46.88;24.70;;;;;;;1.78;95.51;101358.53;5068481;28;20040;-27
2022/12/31 05:56:48;;;;;;;47.35;23.55;;;;;;;2.08;95.61;101391.06;5068570;28;20057;-27
2022/12/31 05:59:14;;;;;;;42.72;24.17;;;;;;;2.07;94.68;101379.72;5068278;28;20029;-26
2022/12/31 06:01:39;;;;;;;43.97;25.38;;;;;;;2.41;93.95;101396.09;5050128;28;20032;-26
2022/12/31 06:04:04;;;;;;;42.88;24.17;;;;;;;2.14;93.54;101369.50;5051656;28;20174;-27
2022/12/31 06:06:30;;;;;;;45.97;25.45;;;;;;;2.09;94.89;101393.59;5071681;28;20404;-27
2022/12/31 06:08:55;;;;;;;55.05;27.55;;;;;;;2.02;95.33;101400.31;5071638;28;20519;-27
2022/12/31 06:11:21;;;;;;;51.25;26.55;;;;;;;2.37;93.84;101413.13;5072114;28;20396;-25
2022/12/31 06:13:46;;;;;;;49.30;25.40;;;;;;;2.24;93.58;101407.22;5071703;28;20032;-26
2022/12/31 06:16:12;;;;;;;46.35;24.50;;;;;;;1.92;95.00;101402.91;5071379;28;20028;-28
2022/12/31 06:18:37;;;;;;;45.63;24.60;;;;;;;2.10;94.04;101394.41;5053527;28;20028;-27
2022/12/31 06:21:03;;;;;;;42.95;23.30;;;;;;;2.28;93.62;101411.25;5070763;28;20568;-26
2022/12/31 06:23:29;;;;;;;38.00;22.02;;;;;;;2.33;94.02;101426.66;5071805;28;20103;-28
2022/12/31 06:25:54;;;;;;;40.90;21.83;;;;;;;2.20;93.49;101422.44;5053508;28;20036;-27
2022/12/31 06:28:20;;;;;;;36.95;20.73;;;;;;;2.04;94.74;101437.03;5053269;28;20093;-26
2022/12/31 06:30:46;;;;;;;38.90;19.92;;;;;;;1.93;95.16;101430.88;5053179;28;20033;-27
2022/12/31 06:33:11;;;;;;;37.22;22.30;;;;;;;1.88;95.78;101433.06;5053371;28;20024;-27
2022/12/31 06:35:36;;;;;;;36.95;22.92;;;;;;;1.83;96.85;101429.97;5071029;28;20423;-29
2022/12/31 06:38:02;;;;;;;40.88;23.85;;;;;;;2.17;95.74;101427.97;5070984;28;20490;-29
2022/12/31 06:40:27;;;;;;;35.08;20.27;;;;;;;2.11;94.51;101417.16;5071141;28;20081;-26
2022/12/31 06:42:53;;;;;;;35.60;21.48;;;;;;;2.43;93.72;101438.06;5071170;28;20127;-27
2022/12/31 06:45:18;;;;;;;37.55;22.33;;;;;;;2.34;93.97;101428.34;5071091;28;20050;-29
2022/12/31 06:47:44;;;;;;;36.55;21.25;;;;;;;2.55;93.61;101431.75;5052922;28;20017;-27
2022/12/31 06:50:09;;;;;;;43.95;22.70;;;;;;;2.68;93.41;101436.78;5070736;28;20586;-28
2022/12/31 06:52:35;;;;;;;38.08;22.45;;;;;;;2.69;92.48;101440.25;5070709;28;20020;-26
2022/12/31 06:55:01;;;;;;;35.42;21.00;;;;;;;2.50;93.61;101449.75;5070922;28;20090;-27
2022/12/31 06:57:26;;;;;;;38.85;22.67;;;;;;;2.52;94.55;101453.09;5052577;28;20087;-28
2022/12/31 06:59:52;;;;;;;45.90;26.20;;;;;;;2.65;94.29;101449.38;5070835;28;20030;-26
2022/12/31 07:02:24;;;;;;;39.20;23.10;;;;;;;2.84;92.66;101451.25;5070534;28;20472;-30
2022/12/31 07:05:05;;;;;;;48.03;26.00;;;;;;;2.65;93.89;101452.84;5070537;28;20086;-27
2022/12/31 07:07:46;;;;;;;43.35;25.17;;;;;;;2.71;93.74;101449.69;5070637;28;20052;-28
2022/12/31 07:10:29;;;;;;;42.78;25.02;;;;;;;2.44;94.63;101438.91;5070474;28;20029;-29
2022/12/31 07:13:07;;;;;;;43.80;25.77;;;;;;;2.49;95.38;101463.03;5070319;28;20496;-27
2022/12/31 07:15:58;;;;;;;42.17;23.10;;;;;;;2.53;95.68;101459.19;5070346;28;20083;-27
2022/12/31 07:18:42;;;;;;;40.35;23.38;;;;;;;2.87;95.94;101464.16;5052375;28;20074;-27
2022/12/31 07:21:14;;;;;;;55.65;29.00;;;;;;;3.06;92.89;101460.75;5051900;28;20087;-25
2022/12/31 07:23:41;;;;;;;49.55;27.55;;;;;;;2.83;93.69;101466.22;5070045;28;20027;-25
2022/12/31 07:26:45;;;;;;;48.28;26.42;;;;;;;2.66;95.09;101465.06;5070154;28;20070;-31
2022/12/31 07:29:22;;;;;;;34.17;20.17;;;;;;;2.82;94.15;101469.84;5046118;28;20426;-26
2022/12/31 07:31:53;;;;;;;40.65;21.73;;;;;;;2.69;95.15;101477.13;5051981;28;20033;-30
2022/12/31 07:34:34;;;;;;;40.38;23.88;;;;;;;2.93;94.29;101471.53;5070046;28;20056;-26
2022/12/31 07:37:05;;;;;;;46.15;25.52;;;;;;;3.04;95.46;101489.84;5069987;28;20113;-26
2022/12/31 07:40:19;;;;;;;44.20;26.15;;;;;;;3.43;93.74;101484.66;5069863;28;20094;-27
2022/12/31 07:42:59;;;;;;;40.28;21.75;;;;;;;3.35;93.34;101484.50;5056192;28;20570;-29
2022/12/31 07:45:45;;;;;;;39.70;22.00;;;;;;;3.11;92.94;101454.09;5070236;28;20036;-27
2022/12/31 07:48:29;;;;;;;55.20;28.05;;;;;;;3.42;92.93;101488.28;5069510;28;20032;-27
2022/12/31 07:50:56;;;;;;;44.22;25.10;;;;;;;3.69;92.78;101473.56;5069570;28;20488;-28
2022/12/31 07:53:23;;;;;;;39.90;21.80;;;;;;;3.63;91.65;101483.69;5070068;28;20078;-27
2022/12/31 07:55:54;;;;;;;44.72;23.52;;;;;;;3.66;92.00;101497.59;5069733;28;20038;-26
2022/12/31 07:59:01;;;;;;;40.75;23.15;;;;;;;3.77;92.45;101502.75;5069475;28;20472;-27
2022/12/31 08:01:41;;;;;;;46.33;26.17;;;;;;;3.74;93.56;101484.53;5069679;28;20025;-27
2022/12/31 08:04:39;;;;;;;40.30;23.88;;;;;;;4.16;92.26;101502.72;5069584;28;20020;-28
2022/12/31 08:07:30;;;;;;;45.03;24.88;;;;;;;4.40;91.83;101511.00;5069416;28;20032;-26
2022/12/31 08:10:01;;;;;;;64.95;35.85;;;;;;;4.37;91.92;101506.00;5040284;28;20040;-26
2022/12/31 08:12:32;;;;;;;46.95;26.73;;;;;;;4.31;91.56;101476.69;5069492;28;20071;-27
2022/12/31 08:14:58;;;;;;;42.33;25.08;;;;;;;4.40;90.64;101484.59;5069309;28;20107;-27
2022/12/31 08:17:24;;;;;;;47.70;26.15;;;;;;;4.76;90.41;101500.59;5051418;28;20127;-28
2022/12/31 08:19:50;;;;;;;44.42;26.48;;;;;;;4.95;90.60;101486.47;5050753;28;20029;-27
2022/12/31 08:22:18;;;;;;;52.47;29.13;;;;;;;5.12;90.34;101499.88;5053546;28;20091;-26
2022/12/31 08:25:08;;;;;;;51.47;30.05;;;;;;;4.78;89.84;101477.50;5051327;28;20127;-28
2022/12/31 08:27:47;;;;;;;49.25;29.17;;;;;;;5.44;89.86;101507.34;5068344;28;20032;-27
2022/12/31 08:30:16;;;;;;;44.03;28.27;;;;;;;5.61;89.08;101498.56;5050816;28;20036;-26
2022/12/31 08:32:44;;;;;;;45.63;28.02;;;;;;;15.10;68.32;101508.34;5051197;28;20127;-26
2022/12/31 08:35:09;;;;;;;;;;;;;;;15.65;59.71;101505.09;5069429;28;20033;-29
2022/12/31 08:37:42;;;;;;;42.17;26.30;;;;;;;15.26;48.05;101515.06;5069430;28;19974;-27
2022/12/31 08:40:16;;;;;;;35.70;24.17;;;;;;;16.80;48.65;101518.19;5068718;28;20263;-26
2022/12/31 08:43:06;;;;;;;38.13;25.50;;;;;;;14.00;55.02;101514.28;5068744;28;20036;-29
2022/12/31 08:45:38;;;;;;;37.83;25.77;;;;;;;15.48;48.71;101520.94;5069031;28;20032;-26
2022/12/31 08:48:28;;;;;;;38.88;26.20;;;;;;;11.51;59.34;101511.47;5050210;28;20028;-28
2022/12/31 08:50:54;;;;;;;38.28;26.38;;;;;;;9.76;68.10;101508.34;5070030;28;20174;-28
2022/12/31 08:53:20;;;;;;;43.08;27.83;;;;;;;8.59;72.36;101500.28;5068714;28;20036;-28
2022/12/31 08:55:48;;;;;;;41.90;27.45;;;;;;;8.02;76.71;101488.72;5068777;28;20111;-30
2022/12/31 08:58:19;;;;;;;;;;;;;;;7.97;78.59;101491.06;5051120;28;20024;-30
2022/12/31 09:00:48;;;;;;;44.80;27.58;;;;;;;7.59;79.92;101461.50;5068997;28;19912;-28
2022/12/31 09:03:40;;;;;;;43.92;25.75;;;;;;;8.09;79.49;101488.91;5068883;28;20036;-28
2022/12/31 09:06:18;;;;;;;46.92;27.77;;;;;;;7.64;81.99;101472.47;5044708;28;20705;-27
2022/12/31 09:08:53;;;;;;;43.20;27.63;;;;;;;8.11;81.72;101499.34;5050169;28;20389;-27
2022/12/31 09:11:28;;;;;;;40.97;24.75;;;;;;;8.05;80.44;101461.81;5069162;28;20017;-29
2022/12/31 09:14:12;;;;;;;41.25;24.45;;;;;;;8.71;80.24;101493.59;5050030;28;20039;-28
2022/12/31 09:16:47;;;;;;;45.33;26.52;;;;;;;8.63;78.94;101480.34;5068720;28;20038;-29
2022/12/31 09:19:12;;;;;;;47.53;28.08;;;;;;;8.72;79.12;101484.59;5068630;28;20687;-28
2022/12/31 09:21:43;;;;;;;42.08;26.17;;;;;;;8.75;78.25;101481.63;5068354;28;20172;-29
2022/12/31 09:24:11;;;;;;;47.88;28.42;;;;;;;8.84;79.40;101469.09;5068127;28;20046;-27
2022/12/31 09:26:36;;;;;;;;;;;;;;;8.98;76.14;101475.53;5068703;28;20493;-26
2022/12/31 09:29:33;;;;;;;45.95;27.10;;;;;;;8.93;77.00;101461.91;5068014;28;19920;-28
2022/12/31 09:32:12;;;;;;;47.03;27.88;;;;;;;9.41;74.91;101452.00;5068311;28;20021;-27
2022/12/31 09:34:45;;;;;;;57.80;28.42;;;;;;;9.64;74.07;101463.50;5050326;28;20064;-30
2022/12/31 09:37:31;;;;;;;46.10;28.00;;;;;;;9.67;72.71;101446.31;5050234;28;20039;-28
2022/12/31 09:40:06;;;;;;;43.95;26.92;;;;;;;10.05;72.91;101455.16;5071640;28;20407;-29
2022/12/31 09:43:10;;;;;;;48.85;30.02;;;;;;;10.20;72.11;101462.34;5072251;28;20100;-27
2022/12/31 09:45:57;;;;;;;44.17;26.55;;;;;;;10.47;69.95;101460.09;5050853;28;20040;-28
2022/12/31 09:48:44;;;;;;;45.53;29.08;;;;;;;10.76;70.95;101456.56;5053739;28;20024;-29
2022/12/31 09:51:39;;;;;;;44.30;27.73;;;;;;;11.01;68.70;101451.72;5053746;28;20512;-30
2022/12/31 09:54:29;;;;;;;40.72;26.13;;;;;;;11.17;69.17;101443.50;5030157;28;20393;-27
2022/12/31 09:57:25;;;;;;;40.97;25.15;;;;;;;10.82;69.73;101440.63;5071717;28;20473;-30
2022/12/31 10:00:11;;;;;;;47.67;24.77;;;;;;;11.25;68.71;101440.69;5071319;28;20099;-28
2022/12/31 10:02:40;;;;;;;37.15;23.98;;;;;;;11.38;67.42;101433.84;5053652;28;20043;-29
2022/12/31 10:05:31;;;;;;;38.00;24.50;;;;;;;11.55;65.70;101426.41;5071737;28;20025;-27
2022/12/31 10:08:48;;;;;;;39.13;23.58;;;;;;;11.94;64.85;101420.59;5071482;28;20107;-28
2022/12/31 10:11:26;;;;;;;35.80;21.73;;;;;;;11.99;64.05;101426.19;5071514;28;20029;-28
2022/12/31 10:14:17;;;;;;;35.40;21.65;;;;;;;12.23;62.60;101419.53;5071617;28;20028;-27
2022/12/31 10:17:27;;;;;;;31.10;20.52;;;;;;;12.62;61.60;101415.41;5071272;28;20707;-29
2022/12/31 10:20:11;;;;;;;36.38;22.50;;;;;;;12.66;59.94;101421.22;5042243;28;20114;-26
2022/12/31 10:23:04;;;;;;;32.00;19.92;;;;;;;12.76;59.64;101416.31;5070930;28;20056;-29
2022/12/31 10:25:44;;;;;;;33.80;20.40;;;;;;;13.02;58.26;101418.25;5089727;28;20032;-28
2022/12/31 10:28:21;;;;;;;32.35;19.77;;;;;;;13.19;57.64;101410.66;5091167;28;20391;-31
2022/12/31 10:30:57;;;;;;;23.30;14.93;;;;;;;13.33;54.34;101389.28;5091408;28;20054;-29
2022/12/31 10:33:41;;;;;;;25.42;16.55;;;;;;;13.77;53.02;101406.59;5091590;28;20028;-27
2022/12/31 10:36:18;;;;;;;23.40;15.35;;;;;;;14.06;52.57;101381.22;5091354;28;20040;-27
2022/12/31 10:39:08;;;;;;;44.55;29.45;;;;;;;14.59;51.41;101396.38;5091151;28;20514;-29
2022/12/31 10:41:55;;;;;;;26.83;18.30;;;;;;;14.79;50.35;101389.03;5091008;28;20066;-27
2022/12/31 10:44:47;;;;;;;31.48;21.33;;;;;;;15.01;49.19;101386.03;5091096;28;20027;-31
2022/12/31 10:47:31;;;;;;;22.98;15.73;;;;;;;15.23;49.22;101390.00;5091022;28;20462;-27
2022/12/31 10:50:33;;;;;;;20.50;14.25;;;;;;;15.44;46.75;101388.00;5089980;28;20115;-29
2022/12/31 10:53:13;;;;;;;26.27;17.95;;;;;;;15.94;47.04;101385.31;5072722;28;20048;-28
2022/12/31 10:56:16;;;;;;;23.33;16.33;;;;;;;16.26;45.06;101371.72;5091324;28;20035;-28
2022/12/31 10:59:19;;;;;;;22.60;15.25;;;;;;;16.26;45.01;101377.94;5061614;28;20044;-28
2022/12/31 11:02:36;;;;;;;23.77;16.20;;;;;;;16.46;44.34;101366.91;5090675;28;20089;-28
2022/12/31 11:05:35;;;;;;;22.70;14.35;;;;;;;16.51;43.78;101368.13;5043241;28;20047;-32
2022/12/31 11:08:28;;;;;;;32.35;14.68;;;;;;;16.56;44.14;101357.50;5090700;28;20108;-27
2022/12/31 11:11:00;;;;;;;21.45;16.13;;;;;;;16.82;42.76;101369.81;5072666;28;20032;-27
2022/12/31 11:13:34;;;;;;;37.13;20.35;;;;;;;17.13;42.77;101360.66;5090556;28;20470;-27
2022/12/31 11:16:14;;;;;;;61.05;32.15;;;;;;;17.57;42.37;101368.47;5072058;28;20115;-29
2022/12/31 11:19:03;;;;;;;31.33;21.08;;;;;;;17.62;41.97;101369.41;5090505;28;20077;-28
2022/12/31 11:21:51;;;;;;;24.98;16.65;;;;;;;17.01;42.59;101357.13;5090495;28;20870;-27
2022/12/31 11:24:37;;;;;;;25.70;18.90;;;;;;;17.38;41.84;101363.16;5090291;28;20028;-27
2022/12/31 11:27:08;;;;;;;22.10;15.57;;;;;;;17.70;40.90;101364.72;5090205;28;20031;-29
2022/12/31 11:30:02;;;;;;;24.73;16.98;;;;;;;17.91;41.49;101352.53;5089965;28;20028;-31
2022/12/31 11:32:44;;;;;;;19.85;13.93;;;;;;;17.92;41.44;101352.31;5076565;28;20075;-31
2022/12/31 11:35:35;;;;;;;20.88;14.65;;;;;;;18.03;41.66;101343.38;5089761;28;20734;-28
2022/12/31 11:38:08;;;;;;;22.58;15.98;;;;;;;18.15;41.90;101343.34;5071368;28;20032;-28
2022/12/31 11:40:40;;;;;;;20.77;15.32;;;;;;;18.15;40.68;101339.84;5072032;28;20024;-27
2022/12/31 11:43:24;;;;;;;54.47;29.70;;;;;;;18.62;41.61;101342.41;5090050;28;20024;-28
2022/12/31 11:46:15;;;;;;;24.35;17.13;;;;;;;18.94;39.38;101341.91;5071813;28;20020;-28
2022/12/31 11:48:56;;;;;;;29.42;21.13;;;;;;;18.71;39.59;101343.63;5090007;28;20032;-27
2022/12/31 11:51:24;;;;;;;21.35;16.30;;;;;;;18.75;39.98;101344.78;5090039;28;20034;-28